Time;durP1;ratioP1;P1;durP2;ratioP2;P2;SDS_P1;SDS_P2;PMS_P1;PMS_P2;Temp;Humidity;BMP_temperature;BMP_pressure;BME280_temperature;BME280_humidity;BME280_pressure;Samples;Min_cycle;Max_cycle;Signal;HPM_P1;HPM_P2
2022/06/18 00:01:41;;;;;;;0.00;0.00;;;18.20;99.90;;;;;;5064609;28;20443;-79
2022/06/18 00:04:11;;;;;;;0.00;0.00;;;18.10;99.90;;;;;;5068414;28;20501;-79
2022/06/18 00:06:48;;;;;;;0.00;0.00;;;18.10;99.90;;;;;;5065309;28;20492;-80
2022/06/18 00:09:16;;;;;;;0.00;0.00;;;18.10;99.90;;;;;;5064703;28;20599;-78
2022/06/18 00:14:30;;;;;;;0.00;0.00;;;18.00;99.90;;;;;;5063157;28;20731;-77
2022/06/18 00:16:58;;;;;;;0.00;0.00;;;18.00;99.90;;;;;;5062465;28;20457;-78
2022/06/18 00:19:26;;;;;;;0.00;0.00;;;17.90;99.90;;;;;;5063586;28;20449;-76
2022/06/18 00:21:55;;;;;;;0.00;0.00;;;17.90;99.90;;;;;;5061890;28;20456;-76
2022/06/18 00:24:23;;;;;;;0.00;0.00;;;17.90;99.90;;;;;;5059540;28;20491;-78
2022/06/18 00:26:51;;;;;;;0.00;0.00;;;17.90;99.90;;;;;;5060560;28;20485;-79
2022/06/18 00:29:19;;;;;;;0.00;0.00;;;17.90;99.90;;;;;;5064175;28;20857;-80
2022/06/18 00:31:47;;;;;;;0.00;0.00;;;17.90;99.90;;;;;;5063772;28;20459;-81
2022/06/18 00:34:15;;;;;;;0.00;0.00;;;17.90;99.90;;;;;;5062795;28;20625;-83
2022/06/18 00:36:44;;;;;;;0.00;0.00;;;17.90;99.90;;;;;;5061658;28;20771;-77
2022/06/18 00:39:16;;;;;;;0.00;0.00;;;17.90;99.90;;;;;;5058174;28;20528;-73
2022/06/18 00:41:45;;;;;;;0.00;0.00;;;17.80;99.90;;;;;;5058697;28;20809;-76
2022/06/18 00:44:28;;;;;;;0.00;0.00;;;17.80;99.90;;;;;;5057687;28;20738;-74
2022/06/18 00:47:07;;;;;;;0.00;0.00;;;17.80;99.90;;;;;;5040126;28;20575;-76
2022/06/18 00:49:41;;;;;;;0.00;0.00;;;17.80;99.90;;;;;;5041536;28;20717;-76
2022/06/18 00:52:15;;;;;;;0.00;0.00;;;17.80;99.90;;;;;;5039994;28;20933;-76
2022/06/18 00:54:49;;;;;;;0.00;0.00;;;17.80;99.90;;;;;;5037163;28;20445;-77
2022/06/18 00:57:22;;;;;;;0.00;0.00;;;17.80;99.90;;;;;;5036983;28;20496;-77
2022/06/18 00:59:57;;;;;;;0.00;0.00;;;17.70;99.90;;;;;;5040798;28;20446;-77
2022/06/18 01:02:33;;;;;;;0.00;0.00;;;17.70;99.90;;;;;;5043631;28;20457;-78
2022/06/18 01:05:01;;;;;;;0.00;0.00;;;17.70;99.90;;;;;;5044029;28;20782;-79
2022/06/18 01:07:33;;;;;;;0.00;0.00;;;17.70;99.90;;;;;;5042978;28;20484;-77
2022/06/18 01:10:05;;;;;;;0.00;0.00;;;17.70;99.90;;;;;;5042501;28;20442;-75
2022/06/18 01:12:33;;;;;;;0.00;0.00;;;17.70;99.90;;;;;;5041268;28;20441;-75
2022/06/18 01:15:07;;;;;;;0.00;0.00;;;17.60;99.90;;;;;;5052115;28;20437;-74
2022/06/18 01:17:37;;;;;;;0.00;0.00;;;17.60;99.90;;;;;;5048516;28;20453;-76
2022/06/18 01:20:08;;;;;;;0.00;0.00;;;17.60;99.90;;;;;;5042410;28;20459;-75
2022/06/18 01:22:44;;;;;;;0.00;0.00;;;17.60;99.90;;;;;;5041161;28;20472;-76
2022/06/18 01:25:14;;;;;;;0.00;0.00;;;17.60;99.90;;;;;;5043444;28;20468;-75
2022/06/18 01:27:42;;;;;;;0.00;0.00;;;17.50;99.90;;;;;;5045920;28;20510;-76
2022/06/18 01:30:14;;;;;;;0.00;0.00;;;17.50;99.90;;;;;;5041485;28;21035;-75
2022/06/18 01:32:43;;;;;;;0.00;0.00;;;17.50;99.90;;;;;;5048551;28;20465;-74
2022/06/18 01:35:12;;;;;;;0.00;0.00;;;17.50;99.90;;;;;;5051757;28;20914;-72
2022/06/18 01:37:40;;;;;;;0.00;0.00;;;17.50;99.90;;;;;;5056668;28;20480;-76
2022/06/18 01:40:12;;;;;;;0.00;0.00;;;17.50;99.90;;;;;;5065415;28;20528;-77
2022/06/18 01:42:45;;;;;;;0.00;0.00;;;17.40;99.90;;;;;;5062971;28;20447;-78
2022/06/18 01:45:19;;;;;;;0.00;0.00;;;17.40;99.90;;;;;;5050980;28;20447;-77
2022/06/18 01:47:52;;;;;;;0.00;0.00;;;17.40;99.90;;;;;;5049049;28;20875;-78
2022/06/18 01:50:23;;;;;;;0.00;0.00;;;17.40;99.90;;;;;;5048104;28;20448;-79
2022/06/18 01:53:09;;;;;;;0.00;0.00;;;17.40;99.90;;;;;;5047107;28;20470;-79
2022/06/18 01:55:44;;;;;;;0.00;0.00;;;17.30;99.90;;;;;;5046241;28;20436;-78
2022/06/18 01:58:18;;;;;;;0.00;0.00;;;17.30;99.90;;;;;;5046617;28;20898;-78
2022/06/18 02:00:49;;;;;;;0.00;0.00;;;17.30;99.90;;;;;;5045477;28;20432;-78
2022/06/18 02:03:16;;;;;;;0.00;0.00;;;17.30;99.90;;;;;;5049217;28;20442;-79
2022/06/18 02:05:45;;;;;;;0.00;0.00;;;17.30;99.90;;;;;;5063188;28;20466;-77
2022/06/18 02:08:17;;;;;;;0.00;0.00;;;17.30;99.90;;;;;;5056971;28;20541;-77
2022/06/18 02:10:51;;;;;;;0.00;0.00;;;17.30;99.90;;;;;;5055298;28;20501;-77
2022/06/18 02:13:23;;;;;;;0.00;0.00;;;17.30;99.90;;;;;;5050170;28;20453;-77
2022/06/18 02:15:53;;;;;;;0.00;0.00;;;17.40;99.90;;;;;;5047644;28;21134;-77
2022/06/18 02:23:43;;;;;;;0.00;0.00;;;17.40;99.90;;;;;;4995703;28;20784;-79
2022/06/18 02:26:11;;;;;;;0.00;0.00;;;17.40;99.90;;;;;;4987636;28;20561;-80
2022/06/18 02:28:43;;;;;;;0.00;0.00;;;17.40;99.90;;;;;;4987510;28;20488;-78
2022/06/18 02:31:17;;;;;;;0.00;0.00;;;17.40;99.90;;;;;;4982259;28;20448;-79
2022/06/18 02:33:48;;;;;;;0.00;0.00;;;17.40;99.90;;;;;;4984955;28;20447;-79
2022/06/18 02:36:19;;;;;;;0.00;0.00;;;17.40;99.90;;;;;;4985733;28;20468;-83
2022/06/18 02:38:48;;;;;;;0.00;0.00;;;17.40;99.90;;;;;;4987834;28;20456;-81
2022/06/18 02:41:16;;;;;;;0.00;0.00;;;17.40;99.90;;;;;;4986226;28;20777;-79
2022/06/18 02:43:46;;;;;;;0.00;0.00;;;17.40;99.90;;;;;;4986756;28;20461;-80
2022/06/18 02:46:15;;;;;;;0.00;0.00;;;17.40;99.90;;;;;;4987222;28;20467;-81
2022/06/18 02:48:44;;;;;;;0.00;0.00;;;17.40;99.90;;;;;;4987368;28;20479;-80
2022/06/18 02:51:13;;;;;;;0.00;0.00;;;17.40;99.90;;;;;;4987177;28;21031;-80
2022/06/18 02:53:42;;;;;;;0.00;0.00;;;17.40;99.90;;;;;;4986610;28;20505;-79
2022/06/18 02:56:14;;;;;;;0.00;0.00;;;17.40;99.90;;;;;;4990077;28;20552;-81
2022/06/18 02:58:48;;;;;;;0.00;0.00;;;17.40;99.90;;;;;;4988746;28;21162;-80
2022/06/18 03:01:19;;;;;;;0.00;0.00;;;17.40;99.90;;;;;;4988366;28;20862;-79
2022/06/18 03:03:50;;;;;;;0.00;0.00;;;17.40;99.90;;;;;;4983968;28;20451;-80
2022/06/18 03:06:21;;;;;;;0.00;0.00;;;17.40;99.90;;;;;;4985853;28;20555;-80
2022/06/18 03:08:50;;;;;;;0.00;0.00;;;17.50;99.90;;;;;;4988581;28;20481;-80
2022/06/18 03:14:08;;;;;;;0.00;0.00;;;17.50;99.90;;;;;;4988596;28;20506;-78
2022/06/18 03:16:36;;;;;;;0.00;0.00;;;17.40;99.90;;;;;;4985940;28;20906;-80
2022/06/18 03:19:06;;;;;;;0.00;0.00;;;17.50;99.90;;;;;;4983158;28;20457;-80
2022/06/18 03:21:38;;;;;;;0.00;0.00;;;17.50;99.90;;;;;;4983137;28;20906;-79
2022/06/18 03:24:07;;;;;;;0.00;0.00;;;17.50;99.90;;;;;;4982937;28;20475;-80
2022/06/18 03:26:36;;;;;;;0.00;0.00;;;17.50;99.90;;;;;;4984124;28;20474;-78
2022/06/18 03:29:05;;;;;;;0.00;0.00;;;17.50;99.90;;;;;;4983389;28;20924;-80
2022/06/18 03:31:34;;;;;;;0.00;0.00;;;17.50;99.90;;;;;;4984762;28;20724;-80
2022/06/18 03:34:03;;;;;;;0.00;0.00;;;17.60;99.90;;;;;;4993723;28;20495;-80
2022/06/18 03:36:31;;;;;;;0.00;0.00;;;17.60;99.90;;;;;;5005043;28;20568;-80
2022/06/18 03:38:59;;;;;;;0.00;0.00;;;17.60;99.90;;;;;;4987335;28;20998;-80
2022/06/18 03:41:27;;;;;;;0.00;0.00;;;17.60;99.90;;;;;;4986999;28;20471;-81
2022/06/18 03:43:56;;;;;;;0.00;0.00;;;17.70;99.90;;;;;;4987845;28;20484;-80
2022/06/18 03:46:24;;;;;;;0.00;0.00;;;17.70;99.90;;;;;;4985090;28;20563;-80
2022/06/18 03:48:57;;;;;;;0.00;0.00;;;17.70;99.90;;;;;;4984931;28;20541;-80
2022/06/18 03:51:26;;;;;;;0.00;0.00;;;17.70;99.90;;;;;;4984529;28;20445;-80
2022/06/18 03:53:55;;;;;;;0.00;0.00;;;17.70;99.90;;;;;;4989267;28;20840;-80
2022/06/18 03:56:25;;;;;;;0.00;0.00;;;17.80;99.90;;;;;;4983963;28;20557;-80
2022/06/18 03:58:53;;;;;;;0.00;0.00;;;17.80;99.90;;;;;;4985413;28;20445;-81
2022/06/18 04:01:24;;;;;;;0.00;0.00;;;17.80;99.90;;;;;;4986253;28;20713;-79
2022/06/18 04:03:54;;;;;;;0.10;0.00;;;17.90;99.90;;;;;;4984251;28;20510;-80
2022/06/18 04:06:23;;;;;;;0.00;0.00;;;17.90;99.90;;;;;;4985972;28;20468;-80
2022/06/18 04:08:52;;;;;;;0.00;0.00;;;18.00;99.90;;;;;;4986488;28;20504;-80
2022/06/18 04:11:20;;;;;;;0.00;0.00;;;18.00;99.90;;;;;;4985670;28;20515;-79
2022/06/18 04:13:48;;;;;;;0.00;0.00;;;18.00;99.90;;;;;;4985558;28;20560;-77
2022/06/18 04:16:16;;;;;;;0.00;0.00;;;18.10;99.90;;;;;;4979699;28;20469;-76
2022/06/18 04:18:44;;;;;;;0.00;0.00;;;18.10;99.90;;;;;;4979605;28;20446;-76
2022/06/18 04:21:14;;;;;;;0.00;0.00;;;18.20;99.90;;;;;;4979268;28;20750;-73
2022/06/18 04:23:43;;;;;;;0.00;0.00;;;18.30;99.90;;;;;;4978890;28;20463;-73
2022/06/18 04:26:12;;;;;;;0.00;0.00;;;18.30;99.90;;;;;;4978533;28;20670;-73
2022/06/18 04:28:43;;;;;;;0.00;0.00;;;18.40;99.90;;;;;;4978582;28;20489;-73
2022/06/18 04:31:11;;;;;;;0.00;0.00;;;18.40;99.90;;;;;;4979020;28;20468;-73
2022/06/18 04:33:39;;;;;;;0.00;0.00;;;18.50;99.90;;;;;;4978708;28;20951;-73
2022/06/18 04:36:07;;;;;;;0.00;0.00;;;18.60;99.90;;;;;;4978545;28;20871;-73
2022/06/18 04:38:36;;;;;;;0.00;0.00;;;18.60;99.90;;;;;;4978516;28;20445;-72
2022/06/18 04:41:04;;;;;;;0.00;0.00;;;18.70;99.90;;;;;;4978923;28;20531;-72
2022/06/18 04:43:32;;;;;;;0.00;0.00;;;18.80;99.90;;;;;;4972332;28;20573;-72
2022/06/18 04:46:00;;;;;;;0.00;0.00;;;18.80;99.90;;;;;;4968473;28;21159;-73
2022/06/18 04:48:27;;;;;;;0.00;0.00;;;18.90;99.90;;;;;;4960042;28;20477;-72
2022/06/18 04:50:55;;;;;;;0.00;0.00;;;18.90;99.90;;;;;;4960266;28;20464;-74
2022/06/18 04:53:23;;;;;;;0.00;0.00;;;19.00;99.90;;;;;;4963765;28;20957;-73
2022/06/18 04:55:52;;;;;;;0.00;0.00;;;19.10;99.90;;;;;;4970402;28;20762;-73
2022/06/18 04:58:20;;;;;;;0.00;0.00;;;19.10;99.90;;;;;;4978345;28;20470;-73
2022/06/18 05:00:48;;;;;;;0.00;0.00;;;19.20;99.90;;;;;;4969058;28;20463;-73
2022/06/18 05:03:18;;;;;;;0.00;0.00;;;19.30;99.90;;;;;;4964253;28;20554;-73
2022/06/18 05:05:46;;;;;;;0.00;0.00;;;19.30;99.90;;;;;;4968806;28;20489;-73
2022/06/18 05:08:14;;;;;;;0.00;0.00;;;19.40;99.90;;;;;;4958353;28;20585;-72
2022/06/18 05:10:42;;;;;;;0.00;0.00;;;19.50;99.90;;;;;;4970697;28;20718;-72
2022/06/18 05:13:12;;;;;;;0.00;0.00;;;19.50;99.90;;;;;;4967158;28;20498;-72
2022/06/18 05:15:41;;;;;;;0.00;0.00;;;19.60;99.90;;;;;;4971646;28;21837;-73
2022/06/18 05:18:14;;;;;;;0.00;0.00;;;19.80;99.90;;;;;;4972515;28;20737;-72
2022/06/18 05:20:42;;;;;;;0.00;0.00;;;19.90;99.90;;;;;;4958821;28;20809;-73
2022/06/18 05:23:12;;;;;;;0.00;0.00;;;20.00;99.90;;;;;;4958604;28;20928;-72
2022/06/18 05:25:40;;;;;;;0.00;0.00;;;20.20;99.90;;;;;;4969797;28;20474;-72
2022/06/18 05:28:11;;;;;;;0.00;0.00;;;20.30;99.90;;;;;;4977062;28;20456;-72
2022/06/18 05:30:40;;;;;;;0.00;0.00;;;20.60;99.90;;;;;;4963839;28;20447;-71
2022/06/18 05:33:08;;;;;;;0.00;0.00;;;21.00;99.90;;;;;;4982559;28;20539;-73
2022/06/18 05:35:38;;;;;;;0.00;0.00;;;21.30;99.90;;;;;;4982807;28;20993;-72
2022/06/18 05:38:06;;;;;;;0.00;0.00;;;21.50;99.90;;;;;;4977087;28;20533;-71
2022/06/18 05:40:34;;;;;;;0.00;0.00;;;21.50;99.90;;;;;;4980996;28;20451;-72
2022/06/18 05:43:02;;;;;;;0.00;0.00;;;21.50;99.90;;;;;;4977944;28;20493;-72
2022/06/18 05:45:32;;;;;;;0.00;0.00;;;21.50;99.90;;;;;;4974414;28;20545;-72
2022/06/18 05:48:00;;;;;;;0.00;0.00;;;21.50;99.90;;;;;;4981772;28;20514;-71
2022/06/18 05:50:30;;;;;;;0.00;0.00;;;21.50;99.90;;;;;;4981998;28;20570;-72
2022/06/18 05:52:58;;;;;;;0.00;0.00;;;21.40;99.90;;;;;;4968448;28;20541;-72
2022/06/18 05:55:26;;;;;;;0.00;0.00;;;21.50;99.90;;;;;;4974876;28;20463;-72
2022/06/18 05:57:58;;;;;;;0.00;0.00;;;21.50;99.90;;;;;;4972228;28;21119;-71
2022/06/18 06:00:29;;;;;;;0.00;0.00;;;21.50;99.90;;;;;;4963238;28;20447;-72
2022/06/18 06:02:58;;;;;;;0.00;0.00;;;21.60;99.90;;;;;;4965737;28;20455;-71
2022/06/18 06:05:26;;;;;;;0.00;0.00;;;21.70;99.90;;;;;;4968312;28;20478;-71
2022/06/18 06:07:55;;;;;;;0.00;0.00;;;21.70;99.90;;;;;;4962668;28;20530;-70
2022/06/18 06:13:12;;;;;;;0.00;0.00;;;21.80;99.90;;;;;;4982430;28;20447;-76
2022/06/18 06:15:41;;;;;;;0.00;0.00;;;21.90;99.90;;;;;;4988627;28;20449;-76
2022/06/18 06:18:11;;;;;;;0.00;0.00;;;22.00;99.90;;;;;;4985370;28;21132;-78
2022/06/18 06:20:42;;;;;;;0.00;0.00;;;22.10;99.90;;;;;;4984581;28;20443;-77
2022/06/18 06:23:11;;;;;;;0.00;0.00;;;22.10;99.90;;;;;;4964768;28;20471;-77
2022/06/18 06:25:41;;;;;;;0.00;0.00;;;22.30;99.90;;;;;;4964737;28;20464;-77
2022/06/18 06:28:13;;;;;;;0.00;0.00;;;22.30;99.90;;;;;;4963406;28;20556;-77
2022/06/18 06:30:41;;;;;;;0.00;0.00;;;22.40;99.90;;;;;;4962850;28;21210;-78
2022/06/18 06:33:11;;;;;;;0.00;0.00;;;22.40;99.90;;;;;;4962768;28;20460;-77
2022/06/18 06:35:39;;;;;;;0.00;0.00;;;22.50;99.90;;;;;;4970405;28;20500;-78
2022/06/18 06:38:08;;;;;;;0.00;0.00;;;22.50;99.90;;;;;;4970540;28;20449;-77
2022/06/18 06:40:36;;;;;;;0.00;0.00;;;22.50;99.90;;;;;;4972309;28;21237;-76
2022/06/18 06:43:07;;;;;;;0.00;0.00;;;22.60;99.90;;;;;;4965269;28;21012;-77
2022/06/18 06:45:36;;;;;;;0.00;0.00;;;22.70;99.90;;;;;;4971383;28;20488;-76
2022/06/18 06:48:07;;;;;;;0.00;0.00;;;22.80;99.90;;;;;;4985320;28;20539;-77
2022/06/18 06:50:37;;;;;;;0.00;0.00;;;22.80;99.90;;;;;;4991501;28;20490;-78
2022/06/18 06:53:05;;;;;;;0.00;0.00;;;22.90;99.90;;;;;;4985996;28;21096;-77
2022/06/18 06:58:23;;;;;;;0.00;0.00;;;23.10;99.90;;;;;;4991604;28;20608;-77
2022/06/18 07:00:53;;;;;;;0.00;0.00;;;23.20;99.90;;;;;;4985156;28;20520;-77
2022/06/18 07:03:27;;;;;;;0.00;0.00;;;23.30;99.90;;;;;;4981585;28;20540;-78
2022/06/18 07:06:01;;;;;;;0.00;0.00;;;23.30;99.90;;;;;;4981354;28;20468;-77
2022/06/18 07:08:29;;;;;;;0.00;0.00;;;23.40;99.90;;;;;;4981725;28;20450;-78
2022/06/18 07:11:00;;;;;;;0.00;0.00;;;23.40;99.90;;;;;;4962965;28;20496;-77
2022/06/18 07:13:30;;;;;;;0.00;0.00;;;23.50;99.90;;;;;;4972320;28;20518;-76
2022/06/18 07:16:02;;;;;;;0.00;0.00;;;23.70;99.90;;;;;;4981028;28;20481;-77
2022/06/18 07:18:32;;;;;;;0.00;0.00;;;23.70;99.90;;;;;;4980925;28;20453;-75
2022/06/18 07:21:03;;;;;;;0.00;0.00;;;23.70;99.90;;;;;;4975172;28;20447;-79
2022/06/18 07:23:31;;;;;;;0.00;0.00;;;23.90;99.90;;;;;;4962074;28;20987;-79
2022/06/18 07:26:00;;;;;;;0.00;0.00;;;23.90;99.90;;;;;;4960532;28;20520;-79
2022/06/18 07:28:28;;;;;;;0.00;0.00;;;23.90;99.90;;;;;;4961541;28;20531;-79
2022/06/18 07:30:56;;;;;;;0.00;0.00;;;24.00;99.90;;;;;;4960558;28;20565;-78
2022/06/18 07:33:26;;;;;;;0.00;0.00;;;24.00;99.90;;;;;;4960957;28;20451;-78
2022/06/18 07:35:54;;;;;;;0.00;0.00;;;24.00;99.90;;;;;;4966640;28;20476;-77
2022/06/18 07:38:24;;;;;;;0.00;0.00;;;24.00;99.90;;;;;;4980236;28;20599;-77
2022/06/18 07:40:53;;;;;;;0.00;0.00;;;24.10;99.90;;;;;;4979931;28;20477;-79
2022/06/18 07:43:28;;;;;;;0.00;0.00;;;24.20;99.90;;;;;;4980604;28;20624;-77
2022/06/18 07:45:56;;;;;;;0.00;0.00;;;24.20;99.90;;;;;;4980056;28;20467;-79
2022/06/18 07:48:24;;;;;;;0.00;0.00;;;24.20;99.90;;;;;;4980313;28;20447;-79
2022/06/18 07:50:52;;;;;;;0.00;0.00;;;24.30;99.90;;;;;;4980352;28;20570;-80
2022/06/18 07:53:21;;;;;;;0.00;0.00;;;24.40;99.90;;;;;;4979538;28;20548;-79
2022/06/18 07:55:52;;;;;;;0.00;0.00;;;24.40;99.90;;;;;;4982391;28;20476;-78
2022/06/18 07:58:20;;;;;;;0.00;0.00;;;24.50;99.90;;;;;;4984266;28;20456;-77
2022/06/18 08:00:49;;;;;;;0.00;0.00;;;24.50;99.90;;;;;;4981209;28;20539;-80
2022/06/18 08:03:18;;;;;;;0.00;0.00;;;24.50;99.90;;;;;;4979819;28;20448;-80
2022/06/18 08:05:47;;;;;;;0.00;0.00;;;24.50;99.90;;;;;;4979762;28;20527;-79
2022/06/18 08:08:15;;;;;;;0.00;0.00;;;24.60;99.90;;;;;;4979398;28;20461;-78
2022/06/18 08:11:06;;;;;;;0.00;0.00;;;24.70;99.90;;;;;;4979820;28;21012;-80
2022/06/18 08:13:35;;;;;;;0.00;0.00;;;24.70;99.90;;;;;;4980872;28;20424;-79
2022/06/18 08:16:04;;;;;;;0.00;0.00;;;24.70;99.90;;;;;;4995205;28;21055;-78
2022/06/18 08:18:32;;;;;;;0.00;0.00;;;24.80;99.90;;;;;;4986419;28;20993;-78
2022/06/18 08:21:04;;;;;;;0.00;0.00;;;24.90;99.90;;;;;;4980185;28;20527;-79
2022/06/18 08:23:33;;;;;;;0.00;0.00;;;25.00;99.90;;;;;;4979411;28;20458;-79
2022/06/18 08:26:01;;;;;;;0.00;0.00;;;25.10;99.90;;;;;;4979482;28;20976;-78
2022/06/18 08:28:31;;;;;;;0.00;0.00;;;25.20;99.90;;;;;;4979423;28;20537;-79
2022/06/18 08:31:01;;;;;;;0.00;0.00;;;25.20;99.90;;;;;;4979582;28;20515;-78
2022/06/18 08:33:30;;;;;;;0.00;0.00;;;25.30;99.90;;;;;;4979091;28;20448;-79
2022/06/18 08:36:00;;;;;;;0.00;0.00;;;25.30;99.90;;;;;;4979299;28;21179;-78
2022/06/18 08:38:28;;;;;;;0.00;0.00;;;25.30;99.90;;;;;;4980243;28;20456;-79
2022/06/18 08:41:11;;;;;;;0.00;0.00;;;25.30;99.90;;;;;;4979935;28;20529;-80
2022/06/18 08:44:11;;;;;;;0.00;0.00;;;25.30;99.90;;;;;;4979873;28;20504;-79
2022/06/18 08:46:49;;;;;;;0.00;0.00;;;25.30;99.90;;;;;;4980259;28;20538;-78
2022/06/18 08:49:33;;;;;;;0.00;0.00;;;25.40;99.90;;;;;;4980527;28;21016;-80
2022/06/18 08:52:20;;;;;;;0.00;0.00;;;25.60;99.90;;;;;;4979777;28;20573;-79
2022/06/18 08:54:57;;;;;;;0.00;0.00;;;25.60;99.90;;;;;;4981605;28;20462;-79
2022/06/18 08:57:32;;;;;;;0.00;0.00;;;25.60;99.90;;;;;;4980596;28;20463;-79
2022/06/18 09:00:11;;;;;;;0.00;0.00;;;25.60;99.90;;;;;;4980559;28;20446;-78
2022/06/18 09:02:42;;;;;;;0.00;0.00;;;25.60;99.90;;;;;;4979019;28;20944;-79
2022/06/18 09:05:41;;;;;;;0.00;0.00;;;25.70;99.90;;;;;;4979218;28;20497;-79
2022/06/18 09:08:22;;;;;;;0.00;0.00;;;25.80;99.90;;;;;;4979299;28;20545;-78
2022/06/18 09:11:06;;;;;;;0.00;0.00;;;25.90;99.90;;;;;;4978734;28;20568;-79
2022/06/18 09:13:38;;;;;;;0.00;0.00;;;25.80;99.90;;;;;;4980674;28;20469;-78
2022/06/18 09:16:11;;;;;;;0.00;0.00;;;25.70;99.90;;;;;;4980020;28;20570;-78
2022/06/18 09:18:46;;;;;;;0.00;0.00;;;25.70;99.90;;;;;;4979436;28;20458;-77
2022/06/18 09:21:21;;;;;;;0.00;0.00;;;25.70;99.90;;;;;;4981656;28;20458;-78
2022/06/18 09:23:53;;;;;;;0.00;0.00;;;25.70;99.90;;;;;;4977841;28;21184;-78
2022/06/18 09:26:24;;;;;;;0.00;0.00;;;25.70;99.90;;;;;;4978224;28;21010;-79
2022/06/18 09:29:01;;;;;;;0.00;0.00;;;25.70;99.90;;;;;;4975591;28;20454;-78
2022/06/18 09:31:36;;;;;;;0.00;0.00;;;25.70;99.90;;;;;;4962521;28;20506;-78
2022/06/18 09:34:11;;;;;;;0.00;0.00;;;25.80;99.90;;;;;;4981225;28;20444;-77
2022/06/18 09:36:43;;;;;;;0.00;0.00;;;25.80;99.90;;;;;;4981735;28;20502;-76
2022/06/18 09:39:16;;;;;;;0.00;0.00;;;25.70;99.90;;;;;;4980891;28;20512;-76
2022/06/18 09:41:51;;;;;;;0.00;0.00;;;25.70;99.90;;;;;;4978049;28;20452;-76
2022/06/18 09:44:24;;;;;;;0.00;0.00;;;25.80;99.90;;;;;;4981226;28;20560;-74
2022/06/18 09:46:59;;;;;;;0.00;0.00;;;25.80;99.90;;;;;;4981723;28;20482;-76
2022/06/18 09:49:27;;;;;;;0.00;0.00;;;25.80;99.90;;;;;;4982079;28;20434;-78
2022/06/18 09:52:02;;;;;;;0.00;0.00;;;25.70;99.90;;;;;;4974123;28;20500;-78
2022/06/18 09:54:35;;;;;;;0.00;0.00;;;25.80;99.90;;;;;;4962059;28;21018;-78
2022/06/18 09:57:05;;;;;;;0.00;0.00;;;25.80;99.90;;;;;;4966888;28;20500;-78
2022/06/18 09:59:36;;;;;;;0.00;0.00;;;25.80;99.90;;;;;;4981928;28;20449;-78
2022/06/18 10:02:17;;;;;;;0.00;0.00;;;25.80;99.90;;;;;;4981811;28;20526;-77
2022/06/18 10:07:34;;;;;;;0.00;0.00;;;25.70;99.90;;;;;;4972563;28;21249;-78
2022/06/18 10:10:06;;;;;;;0.00;0.00;;;25.70;99.90;;;;;;4984846;28;21039;-73
2022/06/18 10:12:35;;;;;;;0.00;0.00;;;25.60;99.90;;;;;;4982671;28;21007;-76
2022/06/18 10:15:06;;;;;;;0.00;0.00;;;25.50;99.90;;;;;;4983136;28;20475;-77
2022/06/18 10:17:50;;;;;;;0.00;0.00;;;25.50;99.90;;;;;;4982023;28;20488;-77
2022/06/18 10:20:26;;;;;;;0.00;0.00;;;25.50;99.90;;;;;;4963140;28;20459;-77
2022/06/18 10:23:03;;;;;;;0.00;0.00;;;25.50;99.90;;;;;;4963715;28;20446;-77
2022/06/18 10:25:41;;;;;;;0.00;0.00;;;25.50;99.90;;;;;;4962242;28;20490;-75
2022/06/18 10:28:18;;;;;;;0.00;0.00;;;25.50;99.90;;;;;;4962127;28;20446;-74
2022/06/18 10:30:57;;;;;;;0.00;0.00;;;25.60;99.90;;;;;;4966035;28;20980;-76
2022/06/18 10:33:39;;;;;;;0.00;0.00;;;25.60;99.90;;;;;;4981372;28;20457;-75
2022/06/18 10:36:15;;;;;;;0.00;0.00;;;25.60;99.90;;;;;;4973980;28;20538;-77
2022/06/18 10:38:56;;;;;;;0.00;0.00;;;25.70;99.90;;;;;;4973257;28;20896;-75
2022/06/18 10:41:27;;;;;;;0.00;0.00;;;25.70;99.90;;;;;;4961455;28;20974;-75
2022/06/18 10:44:19;;;;;;;0.00;0.00;;;25.80;99.90;;;;;;4961263;28;20690;-75
2022/06/18 10:47:00;;;;;;;0.00;0.00;;;25.90;99.90;;;;;;4962857;28;20471;-77
2022/06/18 10:49:31;;;;;;;0.00;0.00;;;26.00;99.90;;;;;;4962481;28;20539;-75
2022/06/18 10:52:03;;;;;;;0.00;0.00;;;26.10;99.90;;;;;;4962686;28;20488;-76
2022/06/18 10:54:32;;;;;;;0.00;0.00;;;26.10;99.90;;;;;;4960876;28;20766;-76
2022/06/18 10:57:01;;;;;;;0.00;0.00;;;26.20;99.90;;;;;;4972964;28;20683;-76
2022/06/18 10:59:33;;;;;;;0.00;0.00;;;26.20;99.90;;;;;;4980003;28;20985;-75
2022/06/18 11:02:17;;;;;;;0.00;0.00;;;26.30;99.90;;;;;;4979187;28;20468;-75
2022/06/18 11:04:56;;;;;;;0.00;0.00;;;26.30;99.90;;;;;;4979147;28;20466;-76
2022/06/18 11:07:26;;;;;;;0.00;0.00;;;26.20;99.90;;;;;;4983495;28;20473;-75
2022/06/18 11:09:59;;;;;;;0.00;0.00;;;26.10;99.90;;;;;;4991173;28;20452;-75
2022/06/18 11:12:31;;;;;;;0.00;0.00;;;26.00;99.90;;;;;;4988231;28;20483;-76
2022/06/18 11:15:00;;;;;;;0.00;0.00;;;25.90;99.90;;;;;;4988477;28;20514;-76
2022/06/18 11:17:36;;;;;;;0.00;0.00;;;25.90;99.90;;;;;;4980447;28;21013;-76
2022/06/18 11:20:16;;;;;;;0.00;0.00;;;25.90;99.90;;;;;;4977514;28;20534;-74
2022/06/18 11:22:50;;;;;;;0.00;0.00;;;25.80;99.90;;;;;;4980290;28;20937;-76
2022/06/18 11:25:28;;;;;;;0.00;0.00;;;25.90;99.90;;;;;;4978396;28;20559;-74
2022/06/18 11:27:58;;;;;;;0.00;0.00;;;26.00;99.90;;;;;;4977379;28;21065;-74
2022/06/18 11:30:31;;;;;;;0.00;0.00;;;26.00;99.90;;;;;;4980149;28;20446;-73
2022/06/18 11:33:01;;;;;;;0.00;0.00;;;26.00;99.90;;;;;;4977989;28;20510;-73
2022/06/18 11:35:38;;;;;;;0.00;0.00;;;25.90;99.90;;;;;;4980718;28;20439;-75
2022/06/18 11:38:22;;;;;;;0.00;0.00;;;25.90;99.90;;;;;;4980083;28;20462;-75
2022/06/18 11:40:53;;;;;;;0.00;0.00;;;25.90;99.90;;;;;;4980105;28;20670;-74
2022/06/18 11:43:32;;;;;;;0.00;0.00;;;25.90;99.90;;;;;;4978718;28;20439;-74
2022/06/18 11:46:11;;;;;;;0.00;0.00;;;25.90;99.90;;;;;;4979270;28;20454;-74
2022/06/18 11:48:44;;;;;;;0.00;0.00;;;25.90;99.90;;;;;;4978074;28;21052;-76
2022/06/18 11:51:20;;;;;;;0.00;0.00;;;25.80;99.90;;;;;;4978712;28;20466;-74
2022/06/18 11:53:54;;;;;;;0.00;0.00;;;25.70;99.90;;;;;;4979396;28;20533;-75
2022/06/18 11:56:28;;;;;;;0.00;0.00;;;25.70;99.90;;;;;;4977312;28;20449;-75
2022/06/18 11:59:01;;;;;;;0.00;0.00;;;25.70;99.90;;;;;;4977943;28;20446;-75
2022/06/18 12:01:34;;;;;;;0.00;0.00;;;25.70;99.90;;;;;;4978928;28;20829;-75
2022/06/18 12:04:10;;;;;;;0.00;0.00;;;25.80;99.90;;;;;;4979490;28;20733;-75
2022/06/18 12:06:43;;;;;;;0.00;0.00;;;25.70;99.90;;;;;;4979210;28;20760;-75
2022/06/18 12:09:29;;;;;;;0.00;0.00;;;25.70;99.90;;;;;;4970939;28;20485;-75
2022/06/18 12:12:09;;;;;;;0.00;0.00;;;25.60;99.90;;;;;;4968489;28;20518;-76
2022/06/18 12:14:44;;;;;;;0.00;0.00;;;25.60;99.90;;;;;;4959782;28;20450;-75
2022/06/18 12:17:17;;;;;;;0.00;0.00;;;25.60;99.90;;;;;;4962012;28;20821;-74
2022/06/18 12:19:53;;;;;;;0.00;0.00;;;25.60;99.90;;;;;;4959592;28;20440;-74
2022/06/18 12:22:32;;;;;;;0.00;0.00;;;25.60;99.90;;;;;;4977859;28;20431;-74
2022/06/18 12:25:24;;;;;;;0.00;0.00;;;25.60;99.90;;;;;;4978559;28;20546;-74
2022/06/18 12:28:00;;;;;;;0.00;0.00;;;25.60;99.90;;;;;;4979082;28;20534;-75
2022/06/18 12:30:32;;;;;;;0.00;0.00;;;25.60;99.90;;;;;;4980621;28;20438;-76
2022/06/18 12:33:05;;;;;;;0.00;0.00;;;25.70;99.90;;;;;;4980295;28;20521;-77
2022/06/18 12:35:37;;;;;;;0.00;0.00;;;25.80;99.90;;;;;;4979010;28;20520;-76
2022/06/18 12:38:17;;;;;;;0.00;0.00;;;25.80;99.90;;;;;;4978928;28;20599;-76
2022/06/18 12:40:51;;;;;;;0.00;0.00;;;25.90;99.90;;;;;;4979683;28;20940;-76
2022/06/18 12:43:24;;;;;;;0.00;0.00;;;25.80;99.90;;;;;;4979855;28;20692;-76
2022/06/18 12:46:03;;;;;;;0.00;0.00;;;25.80;99.90;;;;;;4979405;28;20577;-76
2022/06/18 12:48:43;;;;;;;0.00;0.00;;;25.90;99.90;;;;;;4959117;28;20462;-75
2022/06/18 12:51:18;;;;;;;0.00;0.00;;;25.90;99.90;;;;;;4959925;28;20474;-79
2022/06/18 12:54:20;;;;;;;0.00;0.00;;;25.90;99.90;;;;;;4960812;28;20581;-76
2022/06/18 12:56:56;;;;;;;0.00;0.00;;;25.90;99.90;;;;;;4975135;28;20518;-77
2022/06/18 12:59:33;;;;;;;0.00;0.00;;;26.00;99.90;;;;;;4980182;28;20684;-77
2022/06/18 13:05:08;;;;;;;0.00;0.00;;;26.10;99.90;;;;;;5050009;22;20892;-75
2022/06/18 13:07:45;;;;;;;0.00;0.00;;;26.10;99.90;;;;;;5060259;28;20496;-75
2022/06/18 13:10:23;;;;;;;0.00;0.00;;;26.00;99.90;;;;;;5060736;28;20516;-75
2022/06/18 13:13:09;;;;;;;0.00;0.00;;;26.00;99.90;;;;;;5061089;28;20573;-75
2022/06/18 13:15:43;;;;;;;0.00;0.00;;;25.90;99.90;;;;;;5061214;28;20427;-75
2022/06/18 13:18:16;;;;;;;0.00;0.00;;;25.80;99.90;;;;;;5062055;28;20462;-75
2022/06/18 13:20:48;;;;;;;0.00;0.00;;;25.80;99.90;;;;;;5061631;28;20621;-75
2022/06/18 13:29:00;;;;;;;0.00;0.00;;;25.80;99.90;;;;;;5062257;28;20697;-75
2022/06/18 13:31:38;;;;;;;0.00;0.00;;;25.70;99.90;;;;;;5061328;28;20495;-75
2022/06/18 13:34:14;;;;;;;0.00;0.00;;;25.70;99.90;;;;;;5061879;28;20979;-75
2022/06/18 13:36:51;;;;;;;0.00;0.00;;;25.80;99.90;;;;;;5061843;28;20473;-75
2022/06/18 13:39:29;;;;;;;0.00;0.00;;;25.80;99.90;;;;;;5062066;28;20753;-75
2022/06/18 13:42:07;;;;;;;0.00;0.00;;;25.80;99.90;;;;;;5062228;28;20868;-75